Time;durP1;ratioP1;P1;durP2;ratioP2;P2;SDS_P1;SDS_P2;PMS_P1;PMS_P2;Temp;Humidity;BMP_temperature;BMP_pressure;BME280_temperature;BME280_humidity;BME280_pressure;Samples;Min_cycle;Max_cycle;Signal;HPM_P1;HPM_P2
2021/05/21 00:02:19;;;;;;;10.85;4.03;;;16.70;69.80;;;;;;5021609;28;20481;-62
2021/05/21 00:04:44;;;;;;;10.30;3.67;;;16.60;70.40;;;;;;5043526;28;20045;-63
2021/05/21 00:07:10;;;;;;;11.43;3.90;;;16.70;69.90;;;;;;5037333;28;20029;-62
2021/05/21 00:09:35;;;;;;;16.40;4.05;;;16.60;70.00;;;;;;5041251;28;20036;-63
2021/05/21 00:12:01;;;;;;;11.88;3.95;;;16.60;69.90;;;;;;5034388;28;20052;-62
2021/05/21 00:14:27;;;;;;;12.27;3.50;;;16.60;70.00;;;;;;5021595;28;20049;-62
2021/05/21 00:16:53;;;;;;;11.75;4.30;;;16.60;70.10;;;;;;5021150;28;20058;-62
2021/05/21 00:19:19;;;;;;;11.30;4.00;;;16.50;70.00;;;;;;5023528;28;20021;-62
2021/05/21 00:21:44;;;;;;;10.35;4.13;;;16.50;70.10;;;;;;5042377;28;20091;-61
2021/05/21 00:24:10;;;;;;;12.45;4.40;;;16.50;70.20;;;;;;5027565;28;20119;-63
2021/05/21 00:26:35;;;;;;;8.60;3.45;;;16.50;70.30;;;;;;5046249;28;20044;-64
2021/05/21 00:29:01;;;;;;;10.00;3.97;;;16.50;70.20;;;;;;5030552;28;20044;-63
2021/05/21 00:31:26;;;;;;;15.23;3.60;;;16.40;70.30;;;;;;5031446;28;20025;-64
2021/05/21 00:33:52;;;;;;;10.50;3.60;;;16.50;70.40;;;;;;5032066;28;20028;-63
2021/05/21 00:36:17;;;;;;;11.10;4.05;;;16.40;70.40;;;;;;5043972;28;20099;-61
2021/05/21 00:38:43;;;;;;;11.13;4.18;;;16.40;70.60;;;;;;5051990;28;20028;-63
2021/05/21 00:41:09;;;;;;;8.85;3.42;;;16.40;70.60;;;;;;5027708;28;20090;-62
2021/05/21 00:43:34;;;;;;;12.63;3.50;;;16.40;70.60;;;;;;5026204;28;20107;-62
2021/05/21 00:46:03;;;;;;;7.72;3.60;;;16.30;70.60;;;;;;5032512;28;20107;-62
2021/05/21 00:48:28;;;;;;;6.55;3.17;;;16.30;70.80;;;;;;5048246;28;20041;-61
2021/05/21 00:50:54;;;;;;;11.73;3.53;;;16.30;70.80;;;;;;5046344;28;20056;-61
2021/05/21 00:53:27;;;;;;;6.68;3.53;;;16.30;70.80;;;;;;5027795;28;20039;-62
2021/05/21 00:55:52;;;;;;;7.75;3.25;;;16.30;70.90;;;;;;5027277;28;20029;-63
2021/05/21 00:58:18;;;;;;;6.80;3.75;;;16.20;70.90;;;;;;5047352;28;20106;-62
2021/05/21 01:00:43;;;;;;;7.80;3.22;;;16.20;71.00;;;;;;5042759;28;20678;-63
2021/05/21 01:03:09;;;;;;;10.30;3.75;;;16.20;71.10;;;;;;5044726;28;20488;-63
2021/05/21 01:05:34;;;;;;;6.03;3.42;;;16.20;71.10;;;;;;5041493;28;20744;-62
2021/05/21 01:08:00;;;;;;;9.25;2.70;;;16.10;71.20;;;;;;5044867;28;20041;-62
2021/05/21 01:10:25;;;;;;;7.35;3.25;;;16.10;71.30;;;;;;5048356;28;20109;-63
2021/05/21 01:12:51;;;;;;;11.90;3.47;;;16.10;71.30;;;;;;5050316;28;20063;-61
2021/05/21 01:15:16;;;;;;;8.05;3.10;;;16.10;71.40;;;;;;5049682;28;20115;-63
2021/05/21 01:17:42;;;;;;;6.85;2.80;;;16.10;71.50;;;;;;5049268;28;20120;-64
2021/05/21 01:20:08;;;;;;;7.10;3.10;;;16.00;71.40;;;;;;5052182;28;20052;-62
2021/05/21 01:22:34;;;;;;;9.23;2.67;;;16.00;71.60;;;;;;5033328;28;20058;-62
2021/05/21 01:24:59;;;;;;;5.93;2.83;;;16.00;71.50;;;;;;5015881;28;20987;-64
2021/05/21 01:27:26;;;;;;;7.28;2.75;;;16.00;71.60;;;;;;5038966;28;20025;-63
2021/05/21 01:29:51;;;;;;;4.45;3.05;;;16.00;71.70;;;;;;5008292;28;20298;-64
2021/05/21 01:32:17;;;;;;;6.05;2.80;;;15.90;71.70;;;;;;5015540;28;20420;-63
2021/05/21 01:34:42;;;;;;;6.88;2.70;;;15.90;71.70;;;;;;5018622;28;20079;-63
2021/05/21 01:37:15;;;;;;;8.00;3.10;;;15.90;71.80;;;;;;5025996;28;20296;-62
2021/05/21 01:39:40;;;;;;;4.00;2.78;;;15.90;71.80;;;;;;5019460;28;20025;-61
2021/05/21 01:42:06;;;;;;;5.30;2.95;;;15.90;71.90;;;;;;5045767;28;20166;-61
2021/05/21 01:44:31;;;;;;;5.78;3.20;;;15.90;71.90;;;;;;5026591;28;20032;-62
2021/05/21 01:46:57;;;;;;;8.57;3.53;;;15.90;72.00;;;;;;5021705;28;20108;-62
2021/05/21 01:49:22;;;;;;;4.93;2.78;;;15.80;72.00;;;;;;5020964;28;20309;-61
2021/05/21 01:51:59;;;;;;;5.00;2.80;;;15.80;72.00;;;;;;5040933;28;20385;-63
2021/05/21 01:54:24;;;;;;;3.45;2.88;;;15.80;72.00;;;;;;5037382;28;20024;-61
2021/05/21 01:56:52;;;;;;;5.22;3.33;;;15.90;72.10;;;;;;5045254;28;20497;-62
2021/05/21 01:59:18;;;;;;;6.57;3.15;;;15.70;72.00;;;;;;5026345;28;20044;-62
2021/05/21 02:01:44;;;;;;;6.22;3.25;;;15.80;72.10;;;;;;5022351;28;20115;-62
2021/05/21 02:04:09;;;;;;;5.28;2.92;;;15.80;72.20;;;;;;5008556;28;20530;-63
2021/05/21 02:06:35;;;;;;;8.02;3.08;;;15.70;72.20;;;;;;5046627;28;20031;-61
2021/05/21 02:09:02;;;;;;;7.72;2.88;;;15.70;72.20;;;;;;5023671;28;20037;-63
2021/05/21 02:11:27;;;;;;;5.53;2.67;;;15.70;72.30;;;;;;5043589;28;20481;-63
2021/05/21 02:13:53;;;;;;;7.03;2.97;;;15.70;72.30;;;;;;5039792;28;20107;-62
2021/05/21 02:16:18;;;;;;;6.40;2.85;;;15.80;72.50;;;;;;5016557;28;20043;-64
2021/05/21 02:18:44;;;;;;;7.32;3.03;;;15.70;72.50;;;;;;5045455;28;20029;-63
2021/05/21 02:21:10;;;;;;;5.53;2.83;;;15.70;72.50;;;;;;5045107;28;20037;-63
2021/05/21 02:23:35;;;;;;;5.97;2.92;;;15.70;72.60;;;;;;5044278;28;20309;-63
2021/05/21 02:26:01;;;;;;;5.78;3.13;;;15.70;72.70;;;;;;5008630;28;20057;-63
2021/05/21 02:28:26;;;;;;;4.88;2.92;;;15.70;73.40;;;;;;5025283;28;20060;-62
2021/05/21 02:30:52;;;;;;;3.97;2.83;;;15.70;72.80;;;;;;5041064;28;20057;-61
2021/05/21 02:33:18;;;;;;;3.70;2.88;;;15.70;72.90;;;;;;5019780;28;20129;-62
2021/05/21 02:35:44;;;;;;;5.30;3.00;;;15.70;72.90;;;;;;4992544;28;20579;-64
2021/05/21 02:38:09;;;;;;;6.97;3.85;;;15.60;73.00;;;;;;5037593;28;20036;-63
2021/05/21 02:40:35;;;;;;;11.77;3.38;;;15.60;73.00;;;;;;5022622;28;20029;-63
2021/05/21 02:43:01;;;;;;;8.20;3.38;;;15.60;73.10;;;;;;5045717;28;20037;-63
2021/05/21 02:45:26;;;;;;;6.43;2.70;;;15.60;73.10;;;;;;5044276;28;20788;-64
2021/05/21 02:47:52;;;;;;;4.22;2.83;;;15.60;73.10;;;;;;5045198;28;20053;-63
2021/05/21 02:50:17;;;;;;;7.57;2.70;;;15.60;73.10;;;;;;5017486;28;20362;-61
2021/05/21 02:52:43;;;;;;;6.38;2.78;;;15.60;73.10;;;;;;5035444;28;20115;-63
2021/05/21 02:55:10;;;;;;;4.30;2.67;;;15.60;73.20;;;;;;5041691;28;20034;-61
2021/05/21 02:57:35;;;;;;;3.83;2.63;;;15.50;73.10;;;;;;5026572;28;20037;-62
2021/05/21 03:00:01;;;;;;;6.30;2.50;;;15.50;73.10;;;;;;5037634;28;20123;-61
2021/05/21 03:02:26;;;;;;;5.20;3.05;;;15.50;73.10;;;;;;5035926;28;20453;-64
2021/05/21 03:04:52;;;;;;;5.82;3.08;;;15.60;73.20;;;;;;5040128;28;20056;-61
2021/05/21 03:07:18;;;;;;;4.90;2.47;;;15.50;73.20;;;;;;5022825;28;20029;-63
2021/05/21 03:09:43;;;;;;;4.97;2.00;;;15.50;73.20;;;;;;5020612;28;20148;-63
2021/05/21 03:12:09;;;;;;;3.92;2.58;;;15.40;73.20;;;;;;5039530;28;20488;-63
2021/05/21 03:14:35;;;;;;;6.55;2.47;;;15.40;73.30;;;;;;5044667;28;20107;-63
2021/05/21 03:17:01;;;;;;;4.90;2.40;;;15.40;73.30;;;;;;5022768;28;20033;-61
2021/05/21 03:19:26;;;;;;;6.85;2.70;;;15.40;73.30;;;;;;5040669;28;20021;-61
2021/05/21 03:21:52;;;;;;;5.82;2.60;;;15.40;73.30;;;;;;5045013;28;20123;-63
2021/05/21 03:24:17;;;;;;;3.67;2.50;;;15.40;73.40;;;;;;5042090;28;20038;-62
2021/05/21 03:26:43;;;;;;;3.83;2.45;;;15.40;73.40;;;;;;5039368;28;20033;-62
2021/05/21 03:29:08;;;;;;;10.50;2.38;;;15.40;73.30;;;;;;5042410;28;20036;-62
2021/05/21 03:31:34;;;;;;;3.58;2.50;;;15.30;73.30;;;;;;5023562;28;20049;-61
2021/05/21 03:34:00;;;;;;;6.20;2.72;;;15.30;73.40;;;;;;5035444;28;20025;-61
2021/05/21 03:36:25;;;;;;;3.10;2.40;;;15.40;73.60;;;;;;5038301;28;20029;-63
2021/05/21 03:38:51;;;;;;;6.55;2.40;;;15.30;73.60;;;;;;5040221;28;20029;-61
2021/05/21 03:41:16;;;;;;;5.07;2.50;;;15.30;73.50;;;;;;5037236;28;20071;-63
2021/05/21 03:43:42;;;;;;;3.72;1.83;;;15.30;73.60;;;;;;5019958;28;20053;-62
2021/05/21 03:46:07;;;;;;;3.58;2.35;;;15.30;73.60;;;;;;5022020;28;20025;-63
2021/05/21 03:48:33;;;;;;;3.22;2.42;;;15.30;73.70;;;;;;5042129;28;20044;-63
2021/05/21 03:50:58;;;;;;;4.15;2.50;;;15.20;73.60;;;;;;5038536;28;20037;-64
2021/05/21 03:53:24;;;;;;;3.22;2.72;;;15.20;73.70;;;;;;5037667;28;20087;-63
2021/05/21 03:55:49;;;;;;;7.50;2.92;;;15.20;73.70;;;;;;5026748;28;20560;-62
2021/05/21 03:58:15;;;;;;;3.47;2.58;;;15.20;74.40;;;;;;5032428;28;20511;-63
2021/05/21 04:00:40;;;;;;;5.90;2.70;;;15.20;73.80;;;;;;5024684;28;20029;-64
2021/05/21 04:03:06;;;;;;;5.30;2.30;;;15.20;73.80;;;;;;5040573;28;20028;-62
2021/05/21 04:05:32;;;;;;;4.38;2.85;;;15.20;73.80;;;;;;5003315;28;20481;-62
2021/05/21 04:07:58;;;;;;;116.00;14.55;;;15.20;74.40;;;;;;5040785;28;20151;-63
2021/05/21 04:10:24;;;;;;;63.40;10.43;;;15.20;73.70;;;;;;5021898;28;20112;-63
2021/05/21 04:12:49;;;;;;;119.05;14.52;;;15.20;73.70;;;;;;5038675;28;20025;-60
2021/05/21 04:15:15;;;;;;;131.23;16.48;;;15.20;73.80;;;;;;5037870;28;20048;-63
2021/05/21 04:17:41;;;;;;;92.00;12.65;;;15.20;73.80;;;;;;5037237;28;20040;-62
2021/05/21 04:20:07;;;;;;;61.47;10.88;;;15.20;73.80;;;;;;5042882;28;20036;-64
2021/05/21 04:22:32;;;;;;;56.28;8.90;;;15.20;73.80;;;;;;5055272;28;20051;-61
2021/05/21 04:24:58;;;;;;;64.60;10.80;;;15.20;73.70;;;;;;5059556;28;20380;-62
2021/05/21 04:27:23;;;;;;;49.38;8.23;;;15.20;73.70;;;;;;5035626;28;20044;-61
2021/05/21 04:29:49;;;;;;;63.70;9.65;;;15.20;73.60;;;;;;5041428;28;20472;-62
2021/05/21 04:32:14;;;;;;;51.83;8.88;;;15.20;73.60;;;;;;5059348;28;20541;-61
2021/05/21 04:34:43;;;;;;;62.20;9.27;;;15.20;73.60;;;;;;5055460;28;20588;-63
2021/05/21 04:37:08;;;;;;;68.30;9.68;;;15.20;73.60;;;;;;5056816;28;20040;-63
2021/05/21 04:39:34;;;;;;;65.45;8.10;;;15.20;73.50;;;;;;5061690;28;20307;-62
2021/05/21 04:41:59;;;;;;;91.45;12.02;;;15.20;73.50;;;;;;5057349;28;20039;-64
2021/05/21 04:44:25;;;;;;;273.20;22.40;;;15.20;73.40;;;;;;5028711;28;20016;-62
2021/05/21 04:46:50;;;;;;;215.65;22.02;;;15.20;73.40;;;;;;5044192;28;20393;-62
2021/05/21 04:49:32;;;;;;;324.63;28.42;;;15.20;73.30;;;;;;5053574;28;20477;-64
2021/05/21 04:51:59;;;;;;;404.67;30.70;;;15.20;73.30;;;;;;5062765;28;20490;-62
2021/05/21 04:54:24;;;;;;;375.23;28.52;;;15.20;72.90;;;;;;5058197;28;20519;-63
2021/05/21 04:56:50;;;;;;;504.45;37.53;;;15.20;72.70;;;;;;5040864;28;20052;-61
2021/05/21 04:59:15;;;;;;;274.33;22.08;;;15.30;72.90;;;;;;5056430;28;20075;-63
2021/05/21 05:01:41;;;;;;;317.75;27.50;;;15.30;72.90;;;;;;5038222;28;20120;-62
2021/05/21 05:04:06;;;;;;;310.00;25.75;;;15.30;72.70;;;;;;5052723;28;20021;-61
2021/05/21 05:06:32;;;;;;;270.40;24.73;;;15.30;72.60;;;;;;5059604;28;20120;-62
2021/05/21 05:08:57;;;;;;;256.00;24.95;;;15.30;72.60;;;;;;5039218;28;20353;-60
2021/05/21 05:11:23;;;;;;;346.55;28.55;;;15.30;72.50;;;;;;5054496;28;20029;-61
2021/05/21 05:13:48;;;;;;;274.88;23.58;;;15.30;72.40;;;;;;5062762;28;20024;-63
2021/05/21 05:16:14;;;;;;;391.73;31.40;;;15.30;72.40;;;;;;5061395;28;20038;-61
2021/05/21 05:18:39;;;;;;;403.42;34.30;;;15.30;72.40;;;;;;5040550;28;20032;-63
2021/05/21 05:21:06;;;;;;;378.92;29.27;;;15.30;72.30;;;;;;5059715;28;20407;-63
2021/05/21 05:23:32;;;;;;;386.95;33.30;;;15.30;72.40;;;;;;5048747;28;20067;-63
2021/05/21 05:25:57;;;;;;;432.10;34.53;;;15.30;72.60;;;;;;5050572;28;20569;-63
2021/05/21 05:28:23;;;;;;;310.27;28.55;;;15.30;72.70;;;;;;5049249;28;20021;-62
2021/05/21 05:30:48;;;;;;;329.75;27.90;;;15.30;72.60;;;;;;5049115;28;20028;-61
2021/05/21 05:33:14;;;;;;;227.63;23.15;;;15.30;72.50;;;;;;5041771;28;20028;-61
2021/05/21 05:35:41;;;;;;;264.80;24.95;;;15.30;72.50;;;;;;5066900;28;20031;-63
2021/05/21 05:38:07;;;;;;;252.73;23.90;;;15.30;72.40;;;;;;5067209;28;20057;-62
2021/05/21 05:40:35;;;;;;;262.85;23.42;;;15.40;72.30;;;;;;5047306;28;20029;-61
2021/05/21 05:43:00;;;;;;;223.32;21.83;;;15.30;72.20;;;;;;5049953;28;20032;-63
2021/05/21 05:45:26;;;;;;;248.43;22.17;;;15.40;72.20;;;;;;5066649;28;20039;-62
2021/05/21 05:47:51;;;;;;;236.32;22.10;;;15.40;72.10;;;;;;5049376;28;20605;-62
2021/05/21 05:50:17;;;;;;;258.75;20.10;;;15.40;71.70;;;;;;5048237;28;20047;-64
2021/05/21 05:52:42;;;;;;;239.85;21.35;;;15.40;72.00;;;;;;5067304;28;20033;-61
2021/05/21 05:55:09;;;;;;;237.90;21.20;;;15.40;72.00;;;;;;5049295;28;20036;-61
2021/05/21 05:57:34;;;;;;;240.65;18.00;;;15.40;71.60;;;;;;5048925;28;20392;-63
2021/05/21 05:59:59;;;;;;;171.82;19.00;;;15.40;71.60;;;;;;5049346;28;20032;-62
2021/05/21 06:02:25;;;;;;;195.13;18.40;;;15.40;71.70;;;;;;5048385;28;20087;-63
2021/05/21 06:04:51;;;;;;;187.77;18.08;;;15.50;71.80;;;;;;5065129;28;20119;-63
2021/05/21 06:07:16;;;;;;;203.90;20.88;;;15.50;71.60;;;;;;5060168;28;20032;-62
2021/05/21 06:09:42;;;;;;;199.50;18.98;;;15.50;71.50;;;;;;5062351;28;20127;-61
2021/05/21 06:12:08;;;;;;;174.40;18.65;;;15.50;71.40;;;;;;5042527;28;20131;-61
2021/05/21 06:14:33;;;;;;;177.10;18.70;;;15.50;71.20;;;;;;5063333;28;20086;-62
2021/05/21 06:16:59;;;;;;;175.25;16.33;;;15.50;71.10;;;;;;5064211;28;20098;-63
2021/05/21 06:19:24;;;;;;;157.68;16.35;;;15.60;71.10;;;;;;5041296;28;20492;-63
2021/05/21 06:21:50;;;;;;;169.00;17.08;;;15.60;70.90;;;;;;5060510;28;20040;-63
2021/05/21 06:24:16;;;;;;;180.07;17.88;;;15.60;70.90;;;;;;5060188;28;20044;-62
2021/05/21 06:26:44;;;;;;;145.57;16.65;;;15.60;70.70;;;;;;5055312;28;20458;-63
2021/05/21 06:29:12;;;;;;;124.65;16.90;;;15.60;70.60;;;;;;5059266;28;20047;-64
2021/05/21 06:31:38;;;;;;;156.38;16.13;;;15.60;70.50;;;;;;5037990;28;20045;-63
2021/05/21 06:34:03;;;;;;;167.95;17.83;;;15.70;70.60;;;;;;5057847;28;20045;-63
2021/05/21 06:36:29;;;;;;;153.00;16.20;;;15.70;70.70;;;;;;5054139;28;20048;-63
2021/05/21 06:38:54;;;;;;;167.30;16.63;;;15.70;70.90;;;;;;5058261;28;20056;-63
2021/05/21 06:41:20;;;;;;;131.25;15.73;;;15.60;70.50;;;;;;5045681;28;20029;-62
2021/05/21 06:43:46;;;;;;;135.98;15.27;;;15.70;70.60;;;;;;5059742;28;20029;-62
2021/05/21 06:46:11;;;;;;;144.45;15.25;;;15.80;70.40;;;;;;5040064;28;20024;-61
2021/05/21 06:48:37;;;;;;;150.25;13.93;;;15.80;70.30;;;;;;5051192;28;20113;-63
2021/05/21 06:51:05;;;;;;;140.05;15.00;;;15.80;70.20;;;;;;5042222;28;20051;-64
2021/05/21 06:53:30;;;;;;;150.48;16.25;;;15.90;70.20;;;;;;5065157;28;20157;-62
2021/05/21 06:55:56;;;;;;;156.45;16.92;;;15.90;70.10;;;;;;5047847;28;20024;-63
2021/05/21 06:58:22;;;;;;;122.72;13.57;;;15.90;70.10;;;;;;5046327;28;20048;-62
2021/05/21 07:00:48;;;;;;;153.98;15.48;;;15.90;70.20;;;;;;5045889;28;20802;-63
2021/05/21 07:03:13;;;;;;;126.13;14.10;;;15.90;70.20;;;;;;5046672;28;20112;-64
2021/05/21 07:05:40;;;;;;;117.90;13.52;;;16.00;70.30;;;;;;5048721;28;20107;-62
2021/05/21 07:08:06;;;;;;;125.65;11.98;;;16.00;70.40;;;;;;5019745;28;20043;-62
2021/05/21 07:10:32;;;;;;;100.18;11.57;;;15.90;70.50;;;;;;5043983;28;20028;-63
2021/05/21 07:13:09;;;;;;;122.60;11.85;;;16.00;70.50;;;;;;5042354;28;20063;-61
2021/05/21 07:15:34;;;;;;;106.15;10.27;;;15.90;70.40;;;;;;5043123;28;20034;-62
2021/05/21 07:18:00;;;;;;;88.93;9.25;;;16.00;70.60;;;;;;5058853;28;20032;-61
2021/05/21 07:20:25;;;;;;;112.47;9.95;;;15.90;70.80;;;;;;5063672;28;20498;-63
2021/05/21 07:22:51;;;;;;;98.97;10.18;;;16.00;71.20;;;;;;5062671;28;20357;-61
2021/05/21 07:25:16;;;;;;;125.22;12.38;;;16.00;71.20;;;;;;5045766;28;20085;-62
2021/05/21 07:27:42;;;;;;;103.47;11.70;;;16.00;71.20;;;;;;5061609;28;20407;-61
2021/05/21 07:30:08;;;;;;;99.35;10.25;;;15.90;71.20;;;;;;5045701;28;20025;-61
2021/05/21 07:32:33;;;;;;;116.13;11.38;;;16.00;71.40;;;;;;5063714;28;20032;-63
2021/05/21 07:35:00;;;;;;;86.45;10.93;;;15.90;71.50;;;;;;5062882;28;20047;-63
2021/05/21 07:37:26;;;;;;;93.03;11.15;;;16.00;71.90;;;;;;5061404;28;20024;-60
2021/05/21 07:39:51;;;;;;;84.20;10.68;;;16.00;72.00;;;;;;5037527;28;20079;-63
2021/05/21 07:42:17;;;;;;;104.03;10.57;;;16.00;72.10;;;;;;5060267;28;20488;-62
2021/05/21 07:44:42;;;;;;;151.93;13.30;;;16.00;72.20;;;;;;5064500;28;20506;-62
2021/05/21 07:47:08;;;;;;;91.15;10.13;;;16.00;72.40;;;;;;5046189;28;20628;-61
2021/05/21 07:49:33;;;;;;;109.72;11.23;;;15.90;72.50;;;;;;5042195;28;20040;-61
2021/05/21 07:51:59;;;;;;;109.75;12.18;;;16.00;72.90;;;;;;5052663;28;20366;-61
2021/05/21 07:54:24;;;;;;;108.13;11.10;;;16.00;73.20;;;;;;5042789;28;20025;-61
2021/05/21 07:56:50;;;;;;;120.68;11.57;;;16.00;73.40;;;;;;5056602;28;20455;-60
2021/05/21 07:59:16;;;;;;;114.03;12.60;;;16.00;73.80;;;;;;5041763;28;20066;-60
2021/05/21 08:01:42;;;;;;;85.05;11.45;;;15.90;74.20;;;;;;5045064;28;20277;-60
2021/05/21 08:04:08;;;;;;;119.75;12.35;;;16.00;74.70;;;;;;5044602;28;20115;-60
2021/05/21 08:06:34;;;;;;;106.00;10.90;;;16.00;74.90;;;;;;5044346;28;20556;-60
2021/05/21 08:09:03;;;;;;;115.70;12.68;;;15.90;75.10;;;;;;5044702;28;20040;-60
2021/05/21 08:11:29;;;;;;;94.00;12.27;;;16.00;75.20;;;;;;5042085;28;20110;-60
2021/05/21 08:13:55;;;;;;;111.53;11.95;;;15.90;75.10;;;;;;5061484;28;20025;-60
2021/05/21 08:16:20;;;;;;;121.70;11.73;;;16.00;75.10;;;;;;5059472;28;20043;-60
2021/05/21 08:18:46;;;;;;;125.72;13.38;;;16.00;75.90;;;;;;5055545;28;20060;-60
2021/05/21 08:21:11;;;;;;;122.88;12.95;;;16.00;76.20;;;;;;5059811;28;20067;-60
2021/05/21 08:23:37;;;;;;;112.82;14.50;;;16.00;76.50;;;;;;5042999;28;20507;-60
2021/05/21 08:26:05;;;;;;;104.68;11.27;;;16.00;76.80;;;;;;5044390;28;20656;-60
2021/05/21 08:28:31;;;;;;;123.03;13.48;;;15.90;76.90;;;;;;5022600;28;20045;-60
2021/05/21 08:30:57;;;;;;;102.40;13.65;;;15.90;77.30;;;;;;5046818;28;20040;-60
2021/05/21 08:33:22;;;;;;;108.82;13.45;;;15.90;77.50;;;;;;5041954;28;20444;-60
2021/05/21 08:35:48;;;;;;;140.77;15.77;;;15.90;77.20;;;;;;5052822;28;20025;-60
2021/05/21 08:38:14;;;;;;;121.43;13.73;;;15.90;77.60;;;;;;5045365;28;20036;-60
2021/05/21 08:40:40;;;;;;;130.38;16.05;;;15.90;78.10;;;;;;5052558;28;20109;-60
2021/05/21 08:43:07;;;;;;;139.20;14.63;;;16.00;78.30;;;;;;5042517;28;20107;-59
2021/05/21 08:45:33;;;;;;;89.15;11.75;;;16.00;78.50;;;;;;5059083;28;20044;-60
2021/05/21 08:47:58;;;;;;;103.90;12.75;;;16.00;78.40;;;;;;5056224;28;20396;-60
2021/05/21 08:50:25;;;;;;;108.75;10.85;;;16.00;78.30;;;;;;5061409;28;20926;-60
2021/05/21 08:52:50;;;;;;;84.53;12.07;;;16.10;78.10;;;;;;5043397;28;20123;-60
2021/05/21 08:55:16;;;;;;;122.97;14.07;;;16.00;78.10;;;;;;5043981;28;20111;-60
2021/05/21 08:57:42;;;;;;;96.38;10.55;;;16.00;78.50;;;;;;5060029;28;20032;-60
2021/05/21 09:00:08;;;;;;;115.53;11.80;;;16.10;78.50;;;;;;5041553;28;20035;-60
2021/05/21 09:02:34;;;;;;;88.35;11.60;;;16.10;78.60;;;;;;5042294;28;20044;-60
2021/05/21 09:05:00;;;;;;;143.40;13.35;;;16.10;78.90;;;;;;5056999;28;20075;-60
2021/05/21 09:07:28;;;;;;;131.77;15.15;;;16.10;78.90;;;;;;5057271;28;20032;-60
2021/05/21 09:09:54;;;;;;;121.40;14.23;;;16.10;79.70;;;;;;5042475;28;20037;-62
2021/05/21 09:12:37;;;;;;;133.95;13.50;;;16.10;80.20;;;;;;5048254;28;20028;-60
2021/05/21 09:15:06;;;;;;;116.40;13.32;;;16.10;81.10;;;;;;5015203;28;20523;-61
2021/05/21 09:17:32;;;;;;;110.80;13.48;;;16.10;81.80;;;;;;5040425;28;20143;-60
2021/05/21 09:19:58;;;;;;;115.30;13.73;;;16.10;81.60;;;;;;5058906;28;20124;-60
2021/05/21 09:22:23;;;;;;;124.80;13.43;;;16.10;82.10;;;;;;5043766;28;20123;-60
2021/05/21 09:24:49;;;;;;;111.97;12.38;;;16.10;81.70;;;;;;5043038;28;20040;-60
2021/05/21 09:27:16;;;;;;;114.50;14.50;;;16.10;82.20;;;;;;5062642;28;20096;-60
2021/05/21 09:29:46;;;;;;;132.50;15.15;;;16.10;82.40;;;;;;5040354;28;20037;-60
2021/05/21 09:32:23;;;;;;;124.22;12.07;;;16.10;82.80;;;;;;5043704;28;20431;-60
2021/05/21 09:35:10;;;;;;;142.38;14.60;;;16.10;82.50;;;;;;5059684;28;20037;-60
2021/05/21 09:37:41;;;;;;;113.30;12.13;;;16.10;83.40;;;;;;5025743;28;20040;-60
2021/05/21 09:40:15;;;;;;;134.07;12.02;;;16.10;83.40;;;;;;5060908;28;20032;-60
2021/05/21 09:43:02;;;;;;;110.60;13.02;;;16.10;83.20;;;;;;5061113;28;20036;-60
2021/05/21 09:45:37;;;;;;;110.43;12.98;;;16.10;82.90;;;;;;5044161;28;20064;-60
2021/05/21 09:48:09;;;;;;;103.78;12.15;;;16.10;82.60;;;;;;5043338;28;20074;-60
2021/05/21 09:50:54;;;;;;;112.35;11.32;;;16.10;82.70;;;;;;5061414;28;20028;-60
2021/05/21 09:53:21;;;;;;;98.18;12.70;;;16.10;82.80;;;;;;5042754;28;20539;-60
2021/05/21 09:55:50;;;;;;;103.75;11.07;;;16.20;83.60;;;;;;5046978;28;20025;-60
2021/05/21 09:58:36;;;;;;;116.00;12.20;;;16.10;83.40;;;;;;5046592;28;20033;-60
2021/05/21 10:01:23;;;;;;;121.40;12.10;;;16.10;83.40;;;;;;5048579;28;20044;-60
2021/05/21 10:03:54;;;;;;;119.03;12.18;;;16.10;82.90;;;;;;5065139;28;20070;-61
2021/05/21 10:06:21;;;;;;;118.50;12.10;;;16.20;83.30;;;;;;5011885;28;20044;-60
2021/05/21 10:08:48;;;;;;;145.50;14.13;;;16.20;83.60;;;;;;5059859;28;20029;-60
2021/05/21 10:11:14;;;;;;;145.05;15.77;;;16.20;84.50;;;;;;5038769;28;22428;-60
2021/05/21 10:13:44;;;;;;;113.57;12.63;;;16.10;84.90;;;;;;5059532;28;20074;-60
2021/05/21 10:16:10;;;;;;;126.22;13.68;;;16.20;85.30;;;;;;5041552;28;20520;-60
2021/05/21 10:18:36;;;;;;;146.48;13.80;;;16.00;85.00;;;;;;5044942;28;20040;-60
2021/05/21 10:21:02;;;;;;;166.98;13.45;;;16.20;84.90;;;;;;5059625;28;20052;-61
2021/05/21 10:23:36;;;;;;;93.60;11.82;;;16.10;85.10;;;;;;5042694;28;20557;-60
2021/05/21 10:26:05;;;;;;;112.53;13.00;;;16.20;85.30;;;;;;5044323;28;20804;-60
2021/05/21 10:28:31;;;;;;;139.80;12.52;;;16.10;85.90;;;;;;5043668;28;20112;-60
2021/05/21 10:30:59;;;;;;;137.45;12.77;;;16.10;85.70;;;;;;5043109;28;20129;-60
2021/05/21 10:33:31;;;;;;;114.47;10.38;;;16.20;86.00;;;;;;5044241;28;20019;-60
2021/05/21 10:36:16;;;;;;;81.43;11.00;;;16.10;86.00;;;;;;5062025;28;20029;-60
2021/05/21 10:39:04;;;;;;;144.80;13.95;;;16.10;85.30;;;;;;5056487;28;20090;-60
2021/05/21 10:41:30;;;;;;;103.40;10.88;;;16.20;86.10;;;;;;5058371;28;20036;-60
2021/05/21 10:43:58;;;;;;;138.57;12.25;;;16.20;86.30;;;;;;5042201;28;20101;-61
2021/05/21 10:46:25;;;;;;;156.48;17.50;;;16.20;86.00;;;;;;5043743;28;20100;-60
2021/05/21 10:48:58;;;;;;;126.75;13.57;;;16.20;86.00;;;;;;5045143;28;20059;-60
2021/05/21 10:51:25;;;;;;;140.20;13.27;;;16.30;86.40;;;;;;5045253;28;20036;-60
2021/05/21 10:54:32;;;;;;;115.18;12.98;;;16.40;86.60;;;;;;5061902;28;20017;-60
2021/05/21 10:57:13;;;;;;;104.63;12.40;;;16.30;86.40;;;;;;5061793;28;20036;-60
2021/05/21 10:59:52;;;;;;;74.28;8.45;;;16.30;86.60;;;;;;5064805;28;20135;-61
2021/05/21 11:02:25;;;;;;;82.03;10.00;;;16.30;86.20;;;;;;5048897;28;20020;-60
2021/05/21 11:04:57;;;;;;;101.57;10.98;;;16.30;86.60;;;;;;5055386;28;20025;-61
2021/05/21 11:07:40;;;;;;;81.30;9.70;;;16.40;86.70;;;;;;5049061;28;20017;-61
2021/05/21 11:10:21;;;;;;;89.75;9.85;;;16.30;86.10;;;;;;5035884;28;20082;-60
2021/05/21 11:12:59;;;;;;;83.28;8.95;;;16.30;85.70;;;;;;5046923;28;20086;-60
2021/05/21 11:15:38;;;;;;;89.70;11.15;;;16.30;85.70;;;;;;5031994;28;20021;-60
2021/05/21 11:18:10;;;;;;;161.38;14.23;;;16.30;86.10;;;;;;5053862;28;20035;-60
2021/05/21 11:20:55;;;;;;;81.45;9.75;;;16.30;86.80;;;;;;5045599;28;20547;-61
2021/05/21 11:23:28;;;;;;;68.00;9.82;;;16.40;86.70;;;;;;5060967;28;20083;-61
2021/05/21 11:26:17;;;;;;;92.00;9.38;;;16.40;86.20;;;;;;5062348;28;20036;-60
2021/05/21 11:28:47;;;;;;;63.72;7.85;;;16.40;86.20;;;;;;5062305;28;20028;-61
2021/05/21 11:31:14;;;;;;;68.60;7.70;;;16.40;85.70;;;;;;5039792;28;20028;-61
2021/05/21 11:33:40;;;;;;;59.65;7.95;;;16.50;86.20;;;;;;5025241;28;20120;-60
2021/05/21 11:36:06;;;;;;;59.95;7.45;;;16.50;86.20;;;;;;5041792;28;20051;-60
2021/05/21 11:38:32;;;;;;;59.97;6.65;;;16.40;85.70;;;;;;5044817;28;20028;-60
2021/05/21 11:40:58;;;;;;;64.35;7.07;;;16.50;85.80;;;;;;5060188;28;20043;-60
2021/05/21 11:43:27;;;;;;;63.95;8.50;;;16.50;86.10;;;;;;5062329;28;20037;-59
2021/05/21 11:45:53;;;;;;;44.28;5.70;;;16.50;86.20;;;;;;5057487;28;20124;-60
2021/05/21 11:48:35;;;;;;;54.30;6.10;;;16.50;86.50;;;;;;5036548;28;20047;-60
2021/05/21 11:51:08;;;;;;;49.88;6.35;;;16.60;86.50;;;;;;5039625;28;20092;-61
2021/05/21 11:53:45;;;;;;;69.57;6.18;;;16.50;86.10;;;;;;5057735;28;20538;-61
2021/05/21 11:56:11;;;;;;;46.28;5.68;;;16.50;86.20;;;;;;5040656;28;20081;-60
2021/05/21 11:58:37;;;;;;;49.50;6.43;;;16.50;85.90;;;;;;5059780;28;20044;-60
2021/05/21 12:01:03;;;;;;;60.90;6.10;;;16.70;86.40;;;;;;5027765;28;20044;-60
2021/05/21 12:03:35;;;;;;;65.78;6.90;;;16.50;86.20;;;;;;5059740;28;20491;-60
2021/05/21 12:06:01;;;;;;;68.90;6.50;;;16.60;86.30;;;;;;5061059;28;20047;-60
2021/05/21 12:08:27;;;;;;;43.65;5.05;;;16.50;86.50;;;;;;5036758;28;20429;-61
2021/05/21 12:10:54;;;;;;;64.07;7.40;;;16.60;86.40;;;;;;5044970;28;20231;-60
2021/05/21 12:13:19;;;;;;;57.78;6.32;;;16.50;86.30;;;;;;5060265;28;20021;-61
2021/05/21 12:15:45;;;;;;;79.18;8.93;;;16.60;86.10;;;;;;5059013;28;20168;-60
2021/05/21 12:18:10;;;;;;;88.75;8.70;;;16.60;86.50;;;;;;5059847;28;20052;-61
2021/05/21 12:20:36;;;;;;;79.28;7.45;;;16.60;86.80;;;;;;5060641;28;20203;-60
2021/05/21 12:23:06;;;;;;;83.15;8.88;;;16.60;86.10;;;;;;5044669;28;20147;-60
2021/05/21 12:25:33;;;;;;;67.50;8.77;;;16.60;85.90;;;;;;5039916;28;20070;-60
2021/05/21 12:27:58;;;;;;;63.28;8.55;;;16.60;85.30;;;;;;5061645;28;20169;-60
2021/05/21 12:30:33;;;;;;;73.18;8.15;;;16.60;86.20;;;;;;5040799;28;20123;-60
2021/05/21 12:32:59;;;;;;;77.35;7.50;;;16.60;86.50;;;;;;5027437;28;20078;-60